sensor_id;sensor_type;location;lat;lon;timestamp;pressure;altitude;pressure_sealevel;temperature;humidity
6829;BME280;17930;48.592;8.868;2023-08-07T00:01:24;96665.84;;;11.45;100.00
6829;BME280;17930;48.592;8.868;2023-08-07T00:03:50;96662.94;;;11.47;100.00
6829;BME280;17930;48.592;8.868;2023-08-07T00:06:17;96665.34;;;11.43;100.00
6829;BME280;17930;48.592;8.868;2023-08-07T00:08:44;96670.59;;;11.38;100.00
6829;BME280;17930;48.592;8.868;2023-08-07T00:11:11;96672.72;;;11.36;100.00
6829;BME280;17930;48.592;8.868;2023-08-07T00:13:38;96675.91;;;11.33;100.00
6829;BME280;17930;48.592;8.868;2023-08-07T00:16:05;96682.16;;;11.32;100.00
6829;BME280;17930;48.592;8.868;2023-08-07T00:18:32;96674.84;;;11.34;100.00
6829;BME280;17930;48.592;8.868;2023-08-07T00:20:59;96682.16;;;11.32;100.00
6829;BME280;17930;48.592;8.868;2023-08-07T00:23:26;96677.50;;;11.29;100.00
6829;BME280;17930;48.592;8.868;2023-08-07T00:25:53;96678.06;;;11.26;100.00
6829;BME280;17930;48.592;8.868;2023-08-07T00:28:19;96676.22;;;11.27;100.00
6829;BME280;17930;48.592;8.868;2023-08-07T00:30:48;96680.97;;;11.25;100.00
6829;BME280;17930;48.592;8.868;2023-08-07T00:33:14;96673.41;;;11.23;100.00
6829;BME280;17930;48.592;8.868;2023-08-07T00:35:41;96677.63;;;11.20;100.00
6829;BME280;17930;48.592;8.868;2023-08-07T00:38:08;96680.50;;;11.18;100.00
6829;BME280;17930;48.592;8.868;2023-08-07T00:40:37;96672.47;;;11.15;100.00
6829;BME280;17930;48.592;8.868;2023-08-07T00:43:04;96677.16;;;11.13;100.00
6829;BME280;17930;48.592;8.868;2023-08-07T00:45:34;96688.16;;;11.10;100.00
6829;BME280;17930;48.592;8.868;2023-08-07T00:48:03;96691.03;;;11.08;100.00
6829;BME280;17930;48.592;8.868;2023-08-07T00:50:30;96696.50;;;11.12;100.00
6829;BME280;17930;48.592;8.868;2023-08-07T00:52:57;96686.59;;;11.09;100.00
6829;BME280;17930;48.592;8.868;2023-08-07T00:55:24;96694.16;;;11.10;100.00
6829;BME280;17930;48.592;8.868;2023-08-07T00:57:51;96698.59;;;11.10;100.00
6829;BME280;17930;48.592;8.868;2023-08-07T01:00:18;96695.50;;;11.08;100.00
6829;BME280;17930;48.592;8.868;2023-08-07T01:02:46;96691.38;;;11.02;100.00
6829;BME280;17930;48.592;8.868;2023-08-07T01:05:15;96691.38;;;11.02;100.00
6829;BME280;17930;48.592;8.868;2023-08-07T01:07:42;96694.00;;;11.02;100.00
6829;BME280;17930;48.592;8.868;2023-08-07T01:10:09;96695.34;;;10.94;100.00
6829;BME280;17930;48.592;8.868;2023-08-07T01:12:42;96700.91;;;10.88;100.00
6829;BME280;17930;48.592;8.868;2023-08-07T01:15:14;96704.59;;;10.82;100.00
6829;BME280;17930;48.592;8.868;2023-08-07T01:17:41;96709.81;;;10.82;100.00
6829;BME280;17930;48.592;8.868;2023-08-07T01:20:09;96707.16;;;10.87;100.00
6829;BME280;17930;48.592;8.868;2023-08-07T01:22:37;96708.13;;;10.96;100.00
6829;BME280;17930;48.592;8.868;2023-08-07T01:25:05;96705.47;;;11.01;100.00
6829;BME280;17930;48.592;8.868;2023-08-07T01:27:35;96706.16;;;11.11;100.00
6829;BME280;17930;48.592;8.868;2023-08-07T01:30:11;96707.44;;;11.14;100.00
6829;BME280;17930;48.592;8.868;2023-08-07T01:32:46;96706.94;;;11.12;100.00
6829;BME280;17930;48.592;8.868;2023-08-07T01:35:15;96701.44;;;11.13;100.00
6829;BME280;17930;48.592;8.868;2023-08-07T01:37:45;96699.06;;;11.17;100.00
6829;BME280;17930;48.592;8.868;2023-08-07T01:40:13;96699.22;;;11.25;100.00
6829;BME280;17930;48.592;8.868;2023-08-07T01:42:41;96702.56;;;11.30;100.00
6829;BME280;17930;48.592;8.868;2023-08-07T01:45:08;96698.94;;;11.26;100.00
6829;BME280;17930;48.592;8.868;2023-08-07T01:47:35;96686.94;;;11.25;100.00
6829;BME280;17930;48.592;8.868;2023-08-07T01:50:02;96698.94;;;11.26;100.00
6829;BME280;17930;48.592;8.868;2023-08-07T01:52:28;96695.06;;;11.24;100.00
6829;BME280;17930;48.592;8.868;2023-08-07T01:54:56;96709.50;;;11.17;100.00
6829;BME280;17930;48.592;8.868;2023-08-07T01:57:23;96706.44;;;11.10;100.00
6829;BME280;17930;48.592;8.868;2023-08-07T01:59:51;96714.88;;;11.02;100.00
6829;BME280;17930;48.592;8.868;2023-08-07T02:02:18;96713.84;;;10.98;100.00
6829;BME280;17930;48.592;8.868;2023-08-07T02:04:45;96716.66;;;11.06;100.00
6829;BME280;17930;48.592;8.868;2023-08-07T02:07:11;96715.38;;;11.04;100.00
6829;BME280;17930;48.592;8.868;2023-08-07T02:09:38;96714.25;;;11.10;100.00
6829;BME280;17930;48.592;8.868;2023-08-07T02:12:07;96716.22;;;11.23;100.00
6829;BME280;17930;48.592;8.868;2023-08-07T02:14:33;96716.75;;;11.24;100.00
6829;BME280;17930;48.592;8.868;2023-08-07T02:17:00;96715.63;;;11.30;100.00
6829;BME280;17930;48.592;8.868;2023-08-07T02:19:27;96720.84;;;11.30;100.00
6829;BME280;17930;48.592;8.868;2023-08-07T02:21:53;96715.38;;;11.27;100.00
6829;BME280;17930;48.592;8.868;2023-08-07T02:24:20;96723.75;;;11.29;100.00
6829;BME280;17930;48.592;8.868;2023-08-07T02:26:47;96718.28;;;11.25;100.00
6829;BME280;17930;48.592;8.868;2023-08-07T02:29:15;96723.78;;;11.24;100.00
6829;BME280;17930;48.592;8.868;2023-08-07T02:31:41;96718.28;;;11.25;100.00
6829;BME280;17930;48.592;8.868;2023-08-07T02:34:08;96718.97;;;11.36;100.00
6829;BME280;17930;48.592;8.868;2023-08-07T02:36:35;96717.09;;;11.41;100.00
6829;BME280;17930;48.592;8.868;2023-08-07T02:39:01;96721.75;;;11.44;100.00
6829;BME280;17930;48.592;8.868;2023-08-07T02:41:28;96720.22;;;11.38;100.00
6829;BME280;17930;48.592;8.868;2023-08-07T02:43:56;96726.53;;;11.37;100.00
6829;BME280;17930;48.592;8.868;2023-08-07T02:46:24;96723.28;;;11.45;100.00
6829;BME280;17930;48.592;8.868;2023-08-07T02:48:51;96726.94;;;11.49;100.00
6829;BME280;17930;48.592;8.868;2023-08-07T02:51:19;96728.03;;;11.43;100.00
6829;BME280;17930;48.592;8.868;2023-08-07T02:53:45;96728.41;;;11.32;100.00
6829;BME280;17930;48.592;8.868;2023-08-07T02:56:12;96719.28;;;11.29;100.00
6829;BME280;17930;48.592;8.868;2023-08-07T02:58:39;96728.72;;;11.25;100.00
6829;BME280;17930;48.592;8.868;2023-08-07T03:01:05;96733.44;;;11.23;100.00
6829;BME280;17930;48.592;8.868;2023-08-07T03:03:34;96727.66;;;11.26;100.00
6829;BME280;17930;48.592;8.868;2023-08-07T03:06:01;96729.81;;;11.20;100.00
6829;BME280;17930;48.592;8.868;2023-08-07T03:08:27;96733.47;;;11.19;100.00
6829;BME280;17930;48.592;8.868;2023-08-07T03:10:56;96737.16;;;11.18;100.00
6829;BME280;17930;48.592;8.868;2023-08-07T03:13:24;96732.25;;;11.11;100.00
6829;BME280;17930;48.592;8.868;2023-08-07T03:15:50;96733.81;;;11.12;100.00
6829;BME280;17930;48.592;8.868;2023-08-07T03:18:25;96721.53;;;11.13;100.00
6829;BME280;17930;48.592;8.868;2023-08-07T03:20:53;96728.31;;;11.14;100.00
6829;BME280;17930;48.592;8.868;2023-08-07T03:23:19;96730.00;;;11.00;100.00
6829;BME280;17930;48.592;8.868;2023-08-07T03:25:46;96739.69;;;10.99;100.00
6829;BME280;17930;48.592;8.868;2023-08-07T03:28:13;96741.50;;;10.99;100.00
6829;BME280;17930;48.592;8.868;2023-08-07T03:30:39;96743.19;;;10.85;100.00
6829;BME280;17930;48.592;8.868;2023-08-07T03:33:06;96753.69;;;10.75;100.00
6829;BME280;17930;48.592;8.868;2023-08-07T03:35:33;96748.31;;;10.62;100.00
6829;BME280;17930;48.592;8.868;2023-08-07T03:38:01;96754.34;;;10.52;100.00
6829;BME280;17930;48.592;8.868;2023-08-07T03:40:28;96745.81;;;10.42;100.00
6829;BME280;17930;48.592;8.868;2023-08-07T03:42:54;96743.28;;;10.32;100.00
6829;BME280;17930;48.592;8.868;2023-08-07T03:45:21;96749.81;;;10.29;100.00
6829;BME280;17930;48.592;8.868;2023-08-07T03:47:48;96751.38;;;10.30;100.00
6829;BME280;17930;48.592;8.868;2023-08-07T03:50:14;96751.94;;;10.22;100.00
6829;BME280;17930;48.592;8.868;2023-08-07T03:52:41;96757.66;;;10.24;100.00
6829;BME280;17930;48.592;8.868;2023-08-07T03:55:09;96750.88;;;10.23;100.00
6829;BME280;17930;48.592;8.868;2023-08-07T03:57:36;96756.91;;;10.19;100.00
6829;BME280;17930;48.592;8.868;2023-08-07T04:00:03;96757.41;;;10.21;100.00
6829;BME280;17930;48.592;8.868;2023-08-07T04:02:30;96760.88;;;10.07;100.00
6829;BME280;17930;48.592;8.868;2023-08-07T04:04:57;96771.88;;;9.99;100.00
6829;BME280;17930;48.592;8.868;2023-08-07T04:07:23;96765.63;;;9.95;100.00
6829;BME280;17930;48.592;8.868;2023-08-07T04:09:50;96767.19;;;9.86;100.00
6829;BME280;17930;48.592;8.868;2023-08-07T04:12:18;96770.06;;;9.79;100.00
6829;BME280;17930;48.592;8.868;2023-08-07T04:14:44;96772.41;;;9.86;100.00
6829;BME280;17930;48.592;8.868;2023-08-07T04:17:11;96765.66;;;9.75;100.00
6829;BME280;17930;48.592;8.868;2023-08-07T04:19:38;96767.25;;;9.71;100.00
6829;BME280;17930;48.592;8.868;2023-08-07T04:22:04;96769.88;;;9.56;100.00
6829;BME280;17930;48.592;8.868;2023-08-07T04:24:31;96759.44;;;9.56;100.00
6829;BME280;17930;48.592;8.868;2023-08-07T04:26:58;96766.22;;;9.57;100.00
6829;BME280;17930;48.592;8.868;2023-08-07T04:29:26;96764.63;;;9.71;100.00
6829;BME280;17930;48.592;8.868;2023-08-07T04:31:53;96763.06;;;9.70;100.00
6829;BME280;17930;48.592;8.868;2023-08-07T04:34:19;96769.31;;;9.74;100.00
6829;BME280;17930;48.592;8.868;2023-08-07T04:36:46;96761.97;;;9.96;100.00
6829;BME280;17930;48.592;8.868;2023-08-07T04:39:13;96760.63;;;10.03;100.00
6829;BME280;17930;48.592;8.868;2023-08-07T04:41:39;96773.94;;;10.02;100.00
6829;BME280;17930;48.592;8.868;2023-08-07T04:44:06;96773.19;;;9.86;100.00
6829;BME280;17930;48.592;8.868;2023-08-07T04:46:34;96773.47;;;9.75;100.00
6829;BME280;17930;48.592;8.868;2023-08-07T04:49:00;96776.03;;;9.90;100.00
6829;BME280;17930;48.592;8.868;2023-08-07T04:51:27;96771.16;;;10.36;100.00
6829;BME280;17930;48.592;8.868;2023-08-07T04:53:56;96768.47;;;10.51;100.00
6829;BME280;17930;48.592;8.868;2023-08-07T04:56:23;96773.25;;;10.34;100.00
6829;BME280;17930;48.592;8.868;2023-08-07T04:58:50;96777.75;;;10.24;100.00
6829;BME280;17930;48.592;8.868;2023-08-07T05:01:16;96773.09;;;10.16;100.00
6829;BME280;17930;48.592;8.868;2023-08-07T05:03:45;96778.13;;;9.98;100.00
6829;BME280;17930;48.592;8.868;2023-08-07T05:06:11;96782.25;;;10.04;100.00
6829;BME280;17930;48.592;8.868;2023-08-07T05:08:38;96784.84;;;10.09;100.00
6829;BME280;17930;48.592;8.868;2023-08-07T05:11:05;96773.84;;;10.22;100.00
6829;BME280;17930;48.592;8.868;2023-08-07T05:13:31;96768.88;;;10.25;100.00
6829;BME280;17930;48.592;8.868;2023-08-07T05:15:58;96777.44;;;10.35;100.00
6829;BME280;17930;48.592;8.868;2023-08-07T05:18:25;96771.00;;;10.61;100.00
6829;BME280;17930;48.592;8.868;2023-08-07T05:20:53;96779.66;;;10.52;100.00
6829;BME280;17930;48.592;8.868;2023-08-07T05:23:20;96775.22;;;10.52;100.00
6829;BME280;17930;48.592;8.868;2023-08-07T05:25:47;96788.94;;;10.73;100.00
6829;BME280;17930;48.592;8.868;2023-08-07T05:28:13;96777.59;;;10.87;100.00
6829;BME280;17930;48.592;8.868;2023-08-07T05:30:40;96776.50;;;10.93;100.00
6829;BME280;17930;48.592;8.868;2023-08-07T05:33:07;96788.09;;;11.15;100.00
6829;BME280;17930;48.592;8.868;2023-08-07T05:35:33;96781.41;;;11.32;100.00
6829;BME280;17930;48.592;8.868;2023-08-07T05:38:01;96781.22;;;11.52;100.00
6829;BME280;17930;48.592;8.868;2023-08-07T05:40:28;96779.25;;;11.68;100.00
6829;BME280;17930;48.592;8.868;2023-08-07T05:42:55;96781.19;;;11.57;100.00
6829;BME280;17930;48.592;8.868;2023-08-07T05:45:22;96779.16;;;11.54;100.00
6829;BME280;17930;48.592;8.868;2023-08-07T05:47:49;96785.69;;;11.47;100.00
6829;BME280;17930;48.592;8.868;2023-08-07T05:50:15;96789.41;;;11.41;100.00
6829;BME280;17930;48.592;8.868;2023-08-07T05:52:42;96792.13;;;11.59;100.00
6829;BME280;17930;48.592;8.868;2023-08-07T05:55:10;96789.94;;;11.71;100.00
6829;BME280;17930;48.592;8.868;2023-08-07T05:57:37;96796.91;;;11.52;100.00
6829;BME280;17930;48.592;8.868;2023-08-07T06:00:05;96797.16;;;11.56;100.00
6829;BME280;17930;48.592;8.868;2023-08-07T06:02:39;96800.59;;;11.75;100.00
6829;BME280;17930;48.592;8.868;2023-08-07T06:05:06;96800.41;;;11.71;100.00
6829;BME280;17930;48.592;8.868;2023-08-07T06:07:34;96799.19;;;11.87;100.00
6829;BME280;17930;48.592;8.868;2023-08-07T06:10:01;96802.44;;;11.97;100.00
6829;BME280;17930;48.592;8.868;2023-08-07T06:12:29;96799.72;;;12.07;100.00
6829;BME280;17930;48.592;8.868;2023-08-07T06:14:56;96810.25;;;12.02;100.00
6829;BME280;17930;48.592;8.868;2023-08-07T06:17:22;96807.97;;;12.19;100.00
6829;BME280;17930;48.592;8.868;2023-08-07T06:19:49;96805.50;;;12.27;100.00
6829;BME280;17930;48.592;8.868;2023-08-07T06:22:16;96796.63;;;12.65;100.00
6829;BME280;17930;48.592;8.868;2023-08-07T06:24:42;96792.69;;;12.86;100.00
6829;BME280;17930;48.592;8.868;2023-08-07T06:27:09;96797.56;;;12.92;100.00
6829;BME280;17930;48.592;8.868;2023-08-07T06:29:37;96802.84;;;13.06;100.00
6829;BME280;17930;48.592;8.868;2023-08-07T06:32:05;96808.94;;;13.20;100.00
6829;BME280;17930;48.592;8.868;2023-08-07T06:34:32;96801.50;;;13.40;100.00
6829;BME280;17930;48.592;8.868;2023-08-07T06:36:59;96813.50;;;13.59;100.00
6829;BME280;17930;48.592;8.868;2023-08-07T06:39:25;96823.22;;;13.59;100.00
6829;BME280;17930;48.592;8.868;2023-08-07T06:41:52;96822.19;;;13.41;100.00
6829;BME280;17930;48.592;8.868;2023-08-07T06:44:19;96831.75;;;13.64;100.00
6829;BME280;17930;48.592;8.868;2023-08-07T06:46:47;96830.81;;;13.87;100.00
6829;BME280;17930;48.592;8.868;2023-08-07T06:49:14;96827.03;;;13.80;100.00
6829;BME280;17930;48.592;8.868;2023-08-07T06:51:41;96829.66;;;13.93;100.00
6829;BME280;17930;48.592;8.868;2023-08-07T06:54:07;96820.28;;;14.19;100.00
6829;BME280;17930;48.592;8.868;2023-08-07T06:56:34;96831.16;;;14.12;100.00
6829;BME280;17930;48.592;8.868;2023-08-07T06:59:02;96829.91;;;14.10;100.00
6829;BME280;17930;48.592;8.868;2023-08-07T07:01:29;96827.19;;;14.15;100.00
6829;BME280;17930;48.592;8.868;2023-08-07T07:03:59;96833.00;;;14.12;100.00
6829;BME280;17930;48.592;8.868;2023-08-07T07:06:26;96827.94;;;14.15;100.00
6829;BME280;17930;48.592;8.868;2023-08-07T07:08:52;96829.31;;;14.13;100.00
6829;BME280;17930;48.592;8.868;2023-08-07T07:11:20;96833.78;;;14.26;100.00
6829;BME280;17930;48.592;8.868;2023-08-07T07:13:47;96840.41;;;14.36;100.00
6829;BME280;17930;48.592;8.868;2023-08-07T07:16:14;96839.53;;;14.41;100.00
6829;BME280;17930;48.592;8.868;2023-08-07T07:18:41;96841.75;;;14.34;100.00
6829;BME280;17930;48.592;8.868;2023-08-07T07:21:09;96846.09;;;14.65;100.00
6829;BME280;17930;48.592;8.868;2023-08-07T07:23:36;96839.13;;;14.96;100.00
6829;BME280;17930;48.592;8.868;2023-08-07T07:26:03;96838.00;;;15.45;100.00
6829;BME280;17930;48.592;8.868;2023-08-07T07:28:29;96847.13;;;15.70;100.00
6829;BME280;17930;48.592;8.868;2023-08-07T07:30:56;96846.00;;;15.62;100.00
6829;BME280;17930;48.592;8.868;2023-08-07T07:33:23;96847.47;;;15.55;100.00
6829;BME280;17930;48.592;8.868;2023-08-07T07:35:49;96861.75;;;15.19;100.00
6829;BME280;17930;48.592;8.868;2023-08-07T07:38:17;96861.66;;;15.10;100.00
6829;BME280;17930;48.592;8.868;2023-08-07T07:40:44;96855.06;;;15.56;100.00
6829;BME280;17930;48.592;8.868;2023-08-07T07:43:11;96860.34;;;16.17;100.00
6829;BME280;17930;48.592;8.868;2023-08-07T07:45:37;96855.84;;;16.09;100.00
6829;BME280;17930;48.592;8.868;2023-08-07T07:48:04;96868.66;;;16.02;100.00
6829;BME280;17930;48.592;8.868;2023-08-07T07:50:33;96859.00;;;15.89;100.00
6829;BME280;17930;48.592;8.868;2023-08-07T07:52:59;96876.09;;;15.56;100.00
6829;BME280;17930;48.592;8.868;2023-08-07T07:55:28;96873.91;;;15.50;100.00
6829;BME280;17930;48.592;8.868;2023-08-07T07:57:54;96886.72;;;15.30;100.00
6829;BME280;17930;48.592;8.868;2023-08-07T08:00:21;96872.47;;;15.44;100.00
6829;BME280;17930;48.592;8.868;2023-08-07T08:02:52;96872.66;;;16.30;100.00
6829;BME280;17930;48.592;8.868;2023-08-07T08:05:18;96873.53;;;16.55;100.00
6829;BME280;17930;48.592;8.868;2023-08-07T08:07:45;96878.38;;;16.70;100.00
6829;BME280;17930;48.592;8.868;2023-08-07T08:10:12;96879.53;;;17.11;100.00
6829;BME280;17930;48.592;8.868;2023-08-07T08:12:40;96884.06;;;16.64;100.00
6829;BME280;17930;48.592;8.868;2023-08-07T08:15:07;96876.78;;;17.25;100.00
6829;BME280;17930;48.592;8.868;2023-08-07T08:17:34;96879.72;;;17.40;100.00
6829;BME280;17930;48.592;8.868;2023-08-07T08:20:01;96887.16;;;17.46;100.00
6829;BME280;17930;48.592;8.868;2023-08-07T08:22:27;96893.84;;;17.36;100.00
6829;BME280;17930;48.592;8.868;2023-08-07T08:24:54;96893.78;;;17.02;100.00
6829;BME280;17930;48.592;8.868;2023-08-07T08:27:21;96889.78;;;17.63;100.00
6829;BME280;17930;48.592;8.868;2023-08-07T08:29:49;96889.34;;;17.28;100.00
6829;BME280;17930;48.592;8.868;2023-08-07T08:32:16;96883.28;;;17.52;100.00
6829;BME280;17930;48.592;8.868;2023-08-07T08:34:42;96894.44;;;17.58;100.00
6829;BME280;17930;48.592;8.868;2023-08-07T08:37:09;96888.66;;;16.97;100.00
6829;BME280;17930;48.592;8.868;2023-08-07T08:39:36;96899.34;;;16.92;100.00
6829;BME280;17930;48.592;8.868;2023-08-07T08:42:04;96893.81;;;16.55;100.00
6829;BME280;17930;48.592;8.868;2023-08-07T08:44:31;96885.72;;;17.07;100.00
6829;BME280;17930;48.592;8.868;2023-08-07T08:47:01;96881.53;;;17.82;100.00
6829;BME280;17930;48.592;8.868;2023-08-07T08:49:33;96890.16;;;19.19;100.00
6829;BME280;17930;48.592;8.868;2023-08-07T08:52:05;96885.50;;;18.58;100.00
6829;BME280;17930;48.592;8.868;2023-08-07T08:54:32;96892.63;;;18.66;100.00
6829;BME280;17930;48.592;8.868;2023-08-07T08:56:59;96904.63;;;18.84;100.00
6829;BME280;17930;48.592;8.868;2023-08-07T08:59:26;96902.84;;;18.39;100.00
6829;BME280;17930;48.592;8.868;2023-08-07T09:01:54;96895.63;;;18.85;100.00
6829;BME280;17930;48.592;8.868;2023-08-07T09:04:22;96891.31;;;19.30;100.00
6829;BME280;17930;48.592;8.868;2023-08-07T09:06:49;96869.38;;;20.38;100.00
6829;BME280;17930;48.592;8.868;2023-08-07T09:09:17;96880.91;;;20.89;100.00
6829;BME280;17930;48.592;8.868;2023-08-07T09:11:47;96873.63;;;20.74;100.00
6829;BME280;17930;48.592;8.868;2023-08-07T09:14:16;96870.09;;;20.82;100.00
6829;BME280;17930;48.592;8.868;2023-08-07T09:16:43;96879.28;;;20.17;100.00
6829;BME280;17930;48.592;8.868;2023-08-07T09:19:10;96882.88;;;21.16;100.00
6829;BME280;17930;48.592;8.868;2023-08-07T09:21:38;96883.22;;;20.67;100.00
6829;BME280;17930;48.592;8.868;2023-08-07T09:24:05;96886.00;;;20.70;100.00
6829;BME280;17930;48.592;8.868;2023-08-07T09:26:32;96890.50;;;19.90;100.00
6829;BME280;17930;48.592;8.868;2023-08-07T09:28:59;96888.34;;;19.84;100.00
6829;BME280;17930;48.592;8.868;2023-08-07T09:31:27;96890.31;;;20.07;100.00
6829;BME280;17930;48.592;8.868;2023-08-07T09:34:01;96916.25;;;19.81;100.00
6829;BME280;17930;48.592;8.868;2023-08-07T09:36:30;96900.69;;;20.00;100.00
6829;BME280;17930;48.592;8.868;2023-08-07T09:39:02;96912.41;;;20.11;100.00
6829;BME280;17930;48.592;8.868;2023-08-07T09:41:29;96900.72;;;20.12;100.00
6829;BME280;17930;48.592;8.868;2023-08-07T09:43:56;96893.25;;;21.87;99.18
6829;BME280;17930;48.592;8.868;2023-08-07T09:46:23;96911.06;;;22.14;95.55
6829;BME280;17930;48.592;8.868;2023-08-07T09:48:51;96918.63;;;20.27;95.22
6829;BME280;17930;48.592;8.868;2023-08-07T09:51:18;96912.25;;;21.23;100.00
6829;BME280;17930;48.592;8.868;2023-08-07T09:53:46;96912.84;;;21.67;94.53
6829;BME280;17930;48.592;8.868;2023-08-07T09:56:15;96926.84;;;21.29;95.87
6829;BME280;17930;48.592;8.868;2023-08-07T09:58:46;96916.22;;;20.57;95.99
6829;BME280;17930;48.592;8.868;2023-08-07T10:01:15;96902.38;;;22.60;97.04
6829;BME280;17930;48.592;8.868;2023-08-07T10:03:43;96913.50;;;21.92;92.25
6829;BME280;17930;48.592;8.868;2023-08-07T10:06:09;96905.81;;;21.36;96.25
6829;BME280;17930;48.592;8.868;2023-08-07T10:08:37;96907.84;;;21.03;91.94
6829;BME280;17930;48.592;8.868;2023-08-07T10:11:05;96908.00;;;22.12;91.26
6829;BME280;17930;48.592;8.868;2023-08-07T10:13:34;96909.22;;;22.91;86.32
6829;BME280;17930;48.592;8.868;2023-08-07T10:16:01;96913.47;;;22.19;89.33
6829;BME280;17930;48.592;8.868;2023-08-07T10:18:29;96928.16;;;21.23;89.75
6829;BME280;17930;48.592;8.868;2023-08-07T10:20:56;96914.19;;;21.62;92.40
6829;BME280;17930;48.592;8.868;2023-08-07T10:23:24;96905.56;;;22.50;84.21
6829;BME280;17930;48.592;8.868;2023-08-07T10:25:51;96908.09;;;22.77;85.57
6829;BME280;17930;48.592;8.868;2023-08-07T10:28:19;96928.31;;;21.03;85.64
6829;BME280;17930;48.592;8.868;2023-08-07T10:30:48;96929.94;;;21.31;89.28
6829;BME280;17930;48.592;8.868;2023-08-07T10:33:18;96932.84;;;21.02;91.51
6829;BME280;17930;48.592;8.868;2023-08-07T10:35:47;96939.41;;;21.44;91.63
6829;BME280;17930;48.592;8.868;2023-08-07T10:38:14;96930.53;;;21.63;89.67
6829;BME280;17930;48.592;8.868;2023-08-07T10:41:06;96923.72;;;23.09;86.46
6829;BME280;17930;48.592;8.868;2023-08-07T10:43:36;96912.56;;;24.32;79.38
6829;BME280;17930;48.592;8.868;2023-08-07T10:46:05;96915.03;;;23.12;81.60
6829;BME280;17930;48.592;8.868;2023-08-07T10:48:42;96929.66;;;21.71;81.46
6829;BME280;17930;48.592;8.868;2023-08-07T10:51:12;96933.22;;;21.40;85.20
6829;BME280;17930;48.592;8.868;2023-08-07T10:53:41;96927.91;;;21.40;85.64
6829;BME280;17930;48.592;8.868;2023-08-07T10:56:10;96941.69;;;20.94;88.12
6829;BME280;17930;48.592;8.868;2023-08-07T10:58:38;96933.94;;;20.65;91.44
6829;BME280;17930;48.592;8.868;2023-08-07T11:01:27;96946.88;;;20.23;95.72
6829;BME280;17930;48.592;8.868;2023-08-07T11:04:06;96947.25;;;19.60;98.44
6829;BME280;17930;48.592;8.868;2023-08-07T11:06:34;96950.47;;;18.97;100.00
6829;BME280;17930;48.592;8.868;2023-08-07T11:09:02;96944.34;;;18.76;100.00
6829;BME280;17930;48.592;8.868;2023-08-07T11:11:35;96940.03;;;18.26;100.00
6829;BME280;17930;48.592;8.868;2023-08-07T11:14:05;96950.88;;;18.70;100.00
6829;BME280;17930;48.592;8.868;2023-08-07T11:16:33;96960.56;;;19.03;100.00
6829;BME280;17930;48.592;8.868;2023-08-07T11:19:00;96951.34;;;19.58;100.00
6829;BME280;17930;48.592;8.868;2023-08-07T11:21:27;96946.34;;;19.36;100.00
6829;BME280;17930;48.592;8.868;2023-08-07T11:23:54;96951.84;;;19.52;100.00
6829;BME280;17930;48.592;8.868;2023-08-07T11:26:20;96944.31;;;19.62;100.00
6829;BME280;17930;48.592;8.868;2023-08-07T11:28:47;96937.56;;;20.05;100.00
6829;BME280;17930;48.592;8.868;2023-08-07T11:31:14;96931.75;;;20.23;100.00
6829;BME280;17930;48.592;8.868;2023-08-07T11:33:42;96939.19;;;19.57;100.00
6829;BME280;17930;48.592;8.868;2023-08-07T11:36:12;96938.97;;;18.93;100.00
6829;BME280;17930;48.592;8.868;2023-08-07T11:38:40;96945.03;;;18.93;100.00
6829;BME280;17930;48.592;8.868;2023-08-07T11:41:09;96947.94;;;18.71;100.00
6829;BME280;17930;48.592;8.868;2023-08-07T11:43:37;96960.19;;;18.39;100.00
6829;BME280;17930;48.592;8.868;2023-08-07T11:46:05;96951.66;;;18.08;100.00
6829;BME280;17930;48.592;8.868;2023-08-07T11:48:34;96950.16;;;17.98;100.00
6829;BME280;17930;48.592;8.868;2023-08-07T11:51:03;96951.09;;;17.77;100.00
6829;BME280;17930;48.592;8.868;2023-08-07T11:53:32;96953.88;;;17.89;100.00
6829;BME280;17930;48.592;8.868;2023-08-07T11:56:00;96951.41;;;17.93;100.00
6829;BME280;17930;48.592;8.868;2023-08-07T11:58:34;96952.50;;;17.49;100.00
6829;BME280;17930;48.592;8.868;2023-08-07T12:01:03;96961.16;;;17.25;100.00
6829;BME280;17930;48.592;8.868;2023-08-07T12:03:32;96961.94;;;17.25;100.00
6829;BME280;17930;48.592;8.868;2023-08-07T12:06:05;96966.22;;;17.13;100.00
6829;BME280;17930;48.592;8.868;2023-08-07T12:08:33;96971.31;;;17.01;100.00
6829;BME280;17930;48.592;8.868;2023-08-07T12:11:02;96971.81;;;17.20;100.00
6829;BME280;17930;48.592;8.868;2023-08-07T12:13:29;96965.22;;;17.47;100.00
6829;BME280;17930;48.592;8.868;2023-08-07T12:15:57;96955.28;;;17.70;100.00
6829;BME280;17930;48.592;8.868;2023-08-07T12:18:26;96954.03;;;18.18;100.00
6829;BME280;17930;48.592;8.868;2023-08-07T12:20:57;96951.13;;;18.56;100.00
6829;BME280;17930;48.592;8.868;2023-08-07T12:23:25;96951.19;;;19.14;100.00
6829;BME280;17930;48.592;8.868;2023-08-07T12:25:52;96958.84;;;19.07;100.00
6829;BME280;17930;48.592;8.868;2023-08-07T12:28:19;96963.94;;;19.12;100.00
6829;BME280;17930;48.592;8.868;2023-08-07T12:30:46;96947.75;;;18.76;100.00
6829;BME280;17930;48.592;8.868;2023-08-07T12:33:14;96957.72;;;18.34;100.00
6829;BME280;17930;48.592;8.868;2023-08-07T12:35:41;96961.00;;;18.31;100.00
6829;BME280;17930;48.592;8.868;2023-08-07T12:38:08;96964.59;;;17.93;100.00
6829;BME280;17930;48.592;8.868;2023-08-07T12:40:37;96967.38;;;17.79;100.00
6829;BME280;17930;48.592;8.868;2023-08-07T12:43:04;96967.88;;;17.64;100.00
6829;BME280;17930;48.592;8.868;2023-08-07T12:45:31;96972.66;;;17.45;100.00
6829;BME280;17930;48.592;8.868;2023-08-07T12:47:58;96980.56;;;17.54;100.00
6829;BME280;17930;48.592;8.868;2023-08-07T12:50:24;96968.78;;;17.85;100.00
6829;BME280;17930;48.592;8.868;2023-08-07T12:52:51;96963.03;;;19.37;100.00
6829;BME280;17930;48.592;8.868;2023-08-07T12:55:18;96960.41;;;20.42;100.00
6829;BME280;17930;48.592;8.868;2023-08-07T12:57:46;96952.69;;;20.60;100.00
6829;BME280;17930;48.592;8.868;2023-08-07T13:00:15;96954.69;;;21.59;100.00
6829;BME280;17930;48.592;8.868;2023-08-07T13:02:44;96939.16;;;23.87;94.12
6829;BME280;17930;48.592;8.868;2023-08-07T13:05:11;96938.47;;;22.03;90.21